Time;durP1;ratioP1;P1;durP2;ratioP2;P2;SDS_P1;SDS_P2;PMS_P1;PMS_P2;Temp;Humidity;BMP_temperature;BMP_pressure;BME280_temperature;BME280_humidity;BME280_pressure;Samples;Min_cycle;Max_cycle;Signal;HPM_P1;HPM_P2
2023/04/07 00:01:09;;;;;;;78.30;36.05;;;;;;;;;;5044802;28;20038;-82
2023/04/07 00:03:37;;;;;;;71.20;34.28;;;;;;;;;;5068109;28;20052;-81
2023/04/07 00:06:03;;;;;;;75.22;35.25;;;;;;;;;;5051142;28;20076;-82
2023/04/07 00:08:29;;;;;;;75.35;35.92;;;;;;;;;;5051272;28;20037;-81
2023/04/07 00:10:56;;;;;;;75.03;33.67;;;;;;;;;;5051096;28;20045;-81
2023/04/07 00:13:22;;;;;;;76.07;35.33;;;;;;;;;;5052156;28;20051;-81
2023/04/07 00:15:48;;;;;;;82.18;35.70;;;;;;;;;;5052519;28;20037;-81
2023/04/07 00:18:14;;;;;;;82.10;35.78;;;;;;;;;;5052029;28;20059;-81
2023/04/07 00:20:40;;;;;;;84.85;36.15;;;;;;;;;;5052502;28;20116;-81
2023/04/07 00:23:06;;;;;;;85.82;36.65;;;;;;;;;;5050780;28;20059;-81
2023/04/07 00:25:32;;;;;;;90.18;36.00;;;;;;;;;;5084230;28;20072;-81
2023/04/07 00:27:58;;;;;;;92.32;36.60;;;;;;;;;;5050880;28;20041;-82
2023/04/07 00:30:25;;;;;;;92.25;36.90;;;;;;;;;;5050386;28;20036;-82
2023/04/07 00:32:51;;;;;;;101.30;36.70;;;;;;;;;;5050760;28;20052;-81
2023/04/07 00:35:17;;;;;;;87.32;36.17;;;;;;;;;;5050301;28;20090;-81
2023/04/07 00:37:43;;;;;;;87.15;34.97;;;;;;;;;;5050757;28;20041;-81
2023/04/07 00:40:09;;;;;;;92.78;35.63;;;;;;;;;;5054517;28;20400;-81
2023/04/07 00:42:35;;;;;;;92.35;36.42;;;;;;;;;;5071185;28;20051;-82
2023/04/07 00:45:01;;;;;;;85.88;36.35;;;;;;;;;;5070681;28;20124;-82
2023/04/07 00:47:27;;;;;;;104.75;38.83;;;;;;;;;;5071459;28;20393;-81
2023/04/07 00:49:54;;;;;;;94.55;36.83;;;;;;;;;;5072038;28;20111;-81
2023/04/07 00:52:26;;;;;;;91.15;36.30;;;;;;;;;;5067959;28;20049;-81
2023/04/07 00:54:53;;;;;;;90.82;36.35;;;;;;;;;;5051786;28;20040;-81
2023/04/07 00:57:19;;;;;;;91.97;37.10;;;;;;;;;;5050038;28;20486;-82
2023/04/07 00:59:45;;;;;;;93.20;35.50;;;;;;;;;;5051576;28;20040;-81
2023/04/07 01:02:20;;;;;;;101.45;38.75;;;;;;;;;;5042030;28;20072;-82
2023/04/07 01:04:51;;;;;;;99.63;37.58;;;;;;;;;;5050377;28;20413;-82
2023/04/07 01:07:27;;;;;;;98.53;38.08;;;;;;;;;;5051039;28;20103;-81
2023/04/07 01:09:53;;;;;;;;;;;;;;;;;;5067197;28;20059;-82
2023/04/07 01:12:45;;;;;;;90.20;36.13;;;;;;;;;;5049635;28;19920;-82
2023/04/07 01:15:12;;;;;;;102.85;35.40;;;;;;;;;;5048954;28;20044;-82
2023/04/07 01:17:42;;;;;;;91.72;36.00;;;;;;;;;;5054081;28;20492;-81
2023/04/07 01:20:12;;;;;;;114.22;37.78;;;;;;;;;;5054170;28;20107;-81
2023/04/07 01:22:55;;;;;;;94.20;36.97;;;;;;;;;;5053614;28;20041;-81
2023/04/07 01:25:30;;;;;;;98.57;35.72;;;;;;;;;;5054893;28;20045;-82
2023/04/07 01:28:08;;;;;;;82.93;33.47;;;;;;;;;;5053506;28;20095;-81
2023/04/07 01:30:35;;;;;;;88.80;35.30;;;;;;;;;;5054548;28;20279;-81
2023/04/07 01:33:01;;;;;;;90.38;35.22;;;;;;;;;;5053632;28;20543;-81
2023/04/07 01:35:30;;;;;;;109.85;36.97;;;;;;;;;;5053645;28;20482;-82
2023/04/07 01:37:56;;;;;;;80.20;33.90;;;;;;;;;;5053293;28;20036;-82
2023/04/07 01:40:23;;;;;;;112.35;35.55;;;;;;;;;;5054287;28;20060;-81
2023/04/07 01:42:50;;;;;;;139.25;37.03;;;;;;;;;;5053461;28;20045;-82
2023/04/07 01:45:17;;;;;;;86.95;33.28;;;;;;;;;;5053030;28;20041;-82
2023/04/07 01:47:44;;;;;;;92.25;31.45;;;;;;;;;;5053213;28;20051;-82
2023/04/07 01:50:11;;;;;;;97.93;31.65;;;;;;;;;;5053516;28;20525;-81
2023/04/07 01:52:38;;;;;;;82.75;30.67;;;;;;;;;;5052874;28;20129;-82
2023/04/07 01:55:04;;;;;;;98.82;30.77;;;;;;;;;;5053108;28;20045;-81
2023/04/07 01:57:30;;;;;;;127.05;31.27;;;;;;;;;;5052727;28;20099;-82
2023/04/07 01:59:56;;;;;;;135.65;32.58;;;;;;;;;;5053064;28;20087;-82
2023/04/07 02:02:22;;;;;;;80.15;28.83;;;;;;;;;;5049648;28;20072;-82
2023/04/07 02:04:52;;;;;;;67.72;26.23;;;;;;;;;;5052180;28;20493;-82
2023/04/07 02:07:20;;;;;;;93.43;28.00;;;;;;;;;;5066492;28;20039;-82
2023/04/07 02:09:47;;;;;;;67.50;26.70;;;;;;;;;;5053885;28;20103;-81
2023/04/07 02:12:14;;;;;;;109.15;29.27;;;;;;;;;;5052476;28;20517;-82
2023/04/07 02:14:41;;;;;;;86.82;27.50;;;;;;;;;;5053721;28;20107;-82
2023/04/07 02:17:08;;;;;;;97.20;28.42;;;;;;;;;;5035999;28;20149;-82
2023/04/07 02:19:34;;;;;;;75.53;25.42;;;;;;;;;;5052617;28;20091;-82
2023/04/07 02:22:02;;;;;;;65.05;25.10;;;;;;;;;;5054042;28;20482;-81
2023/04/07 02:24:28;;;;;;;80.88;24.58;;;;;;;;;;5052407;28;20040;-81
2023/04/07 02:26:55;;;;;;;74.45;21.88;;;;;;;;;;5052647;28;20048;-82
2023/04/07 02:29:21;;;;;;;83.63;22.05;;;;;;;;;;5053271;28;20051;-82
2023/04/07 02:31:47;;;;;;;53.60;19.88;;;;;;;;;;5036237;28;20041;-82
2023/04/07 02:34:13;;;;;;;59.30;19.27;;;;;;;;;;5052332;28;20040;-82
2023/04/07 02:36:39;;;;;;;69.57;19.30;;;;;;;;;;5052129;28;20041;-82
2023/04/07 02:39:05;;;;;;;59.78;17.52;;;;;;;;;;5052254;28;20049;-81
2023/04/07 02:41:31;;;;;;;51.58;16.13;;;;;;;;;;5053371;28;20056;-82
2023/04/07 02:43:57;;;;;;;44.50;14.70;;;;;;;;;;5053325;28;20087;-82
2023/04/07 02:46:23;;;;;;;56.30;15.73;;;;;;;;;;5035296;28;20051;-81
2023/04/07 02:48:50;;;;;;;53.03;14.48;;;;;;;;;;5053562;28;20052;-81
2023/04/07 02:51:16;;;;;;;52.90;13.45;;;;;;;;;;5052569;28;20049;-82
2023/04/07 02:53:42;;;;;;;51.33;13.55;;;;;;;;;;5053505;28;20052;-81
2023/04/07 02:56:08;;;;;;;42.58;13.05;;;;;;;;;;5053859;28;20044;-82
2023/04/07 02:58:34;;;;;;;38.70;12.50;;;;;;;;;;5035272;28;20097;-82
2023/04/07 03:01:00;;;;;;;41.50;11.10;;;;;;;;;;5052666;28;20048;-81
2023/04/07 03:03:26;;;;;;;36.70;11.93;;;;;;;;;;5052844;28;20566;-82
2023/04/07 03:05:53;;;;;;;35.72;11.82;;;;;;;;;;5037919;28;20401;-81
2023/04/07 03:08:19;;;;;;;38.35;12.18;;;;;;;;;;5037010;28;20083;-82
2023/04/07 03:10:45;;;;;;;37.72;11.80;;;;;;;;;;5055035;28;20055;-82
2023/04/07 03:13:15;;;;;;;39.97;12.15;;;;;;;;;;5054166;28;20123;-82
2023/04/07 03:15:41;;;;;;;39.70;11.40;;;;;;;;;;5054303;28;20083;-82
2023/04/07 03:18:07;;;;;;;41.17;11.82;;;;;;;;;;5053516;28;20048;-82
2023/04/07 03:20:33;;;;;;;36.90;11.20;;;;;;;;;;5053045;28;20041;-82
2023/04/07 03:23:00;;;;;;;38.65;11.00;;;;;;;;;;5054948;28;20037;-82
2023/04/07 03:25:26;;;;;;;35.08;10.25;;;;;;;;;;5052106;28;20072;-82
2023/04/07 03:27:52;;;;;;;36.97;9.95;;;;;;;;;;5051548;28;20037;-82
2023/04/07 03:30:18;;;;;;;35.15;9.60;;;;;;;;;;5051425;28;20052;-82
2023/04/07 03:32:44;;;;;;;31.30;10.00;;;;;;;;;;5051051;28;20124;-82
2023/04/07 03:35:10;;;;;;;38.45;10.43;;;;;;;;;;5051488;28;20393;-82
2023/04/07 03:37:36;;;;;;;37.15;10.25;;;;;;;;;;5050781;28;20045;-82
2023/04/07 03:40:03;;;;;;;35.63;9.77;;;;;;;;;;5050774;28;20056;-82
2023/04/07 03:42:29;;;;;;;33.97;9.68;;;;;;;;;;5051250;28;20485;-82
2023/04/07 03:44:55;;;;;;;29.10;9.48;;;;;;;;;;5052168;28;20044;-82
2023/04/07 03:47:21;;;;;;;31.05;9.32;;;;;;;;;;5052701;28;20040;-81
2023/04/07 03:49:47;;;;;;;35.08;9.07;;;;;;;;;;5050777;28;20068;-82
2023/04/07 03:52:14;;;;;;;35.33;9.40;;;;;;;;;;5051031;28;20436;-81
2023/04/07 03:54:40;;;;;;;30.30;9.32;;;;;;;;;;5050513;28;20052;-82
2023/04/07 03:57:06;;;;;;;29.15;9.13;;;;;;;;;;5051013;28;20037;-81
2023/04/07 03:59:32;;;;;;;26.60;8.68;;;;;;;;;;5050857;28;20041;-81
2023/04/07 04:01:59;;;;;;;34.28;10.00;;;;;;;;;;5029981;28;20045;-82
2023/04/07 04:04:25;;;;;;;30.33;9.20;;;;;;;;;;5033967;28;20444;-81
2023/04/07 04:06:51;;;;;;;30.05;9.93;;;;;;;;;;5083193;28;20615;-82
2023/04/07 04:09:17;;;;;;;36.40;10.10;;;;;;;;;;5051873;28;20044;-81
2023/04/07 04:11:44;;;;;;;32.75;9.35;;;;;;;;;;5051768;28;20551;-82
2023/04/07 04:14:10;;;;;;;27.33;9.18;;;;;;;;;;5052143;28;20394;-81
2023/04/07 04:16:36;;;;;;;24.88;9.15;;;;;;;;;;5051639;28;20477;-82
2023/04/07 04:19:02;;;;;;;30.85;9.63;;;;;;;;;;5052080;28;20147;-81
2023/04/07 04:21:28;;;;;;;30.98;9.82;;;;;;;;;;5050749;28;20440;-82
2023/04/07 04:23:54;;;;;;;34.10;10.40;;;;;;;;;;5050290;28;20049;-82
2023/04/07 04:26:24;;;;;;;29.55;9.88;;;;;;;;;;5034511;28;20053;-82
2023/04/07 04:28:50;;;;;;;38.90;9.70;;;;;;;;;;5051561;28;20044;-82
2023/04/07 04:31:16;;;;;;;31.27;9.65;;;;;;;;;;5051731;28;20049;-82
2023/04/07 04:33:43;;;;;;;25.75;9.70;;;;;;;;;;5051320;28;20075;-82
2023/04/07 04:36:09;;;;;;;23.63;9.50;;;;;;;;;;5050844;28;20438;-82
2023/04/07 04:38:35;;;;;;;34.15;9.27;;;;;;;;;;5051284;28;20048;-81
2023/04/07 04:41:01;;;;;;;32.20;9.95;;;;;;;;;;5051505;28;20088;-81
2023/04/07 04:43:27;;;;;;;28.33;9.90;;;;;;;;;;5051836;28;20041;-81
2023/04/07 04:45:54;;;;;;;33.58;10.13;;;;;;;;;;5050216;28;20402;-82
2023/04/07 04:48:20;;;;;;;34.08;10.13;;;;;;;;;;5050453;28;20045;-81
2023/04/07 04:50:46;;;;;;;27.83;9.88;;;;;;;;;;5053635;28;20049;-81
2023/04/07 04:53:12;;;;;;;30.00;10.55;;;;;;;;;;5054464;28;20041;-82
2023/04/07 04:55:39;;;;;;;28.85;9.95;;;;;;;;;;5053865;28;20045;-82
2023/04/07 04:58:05;;;;;;;34.42;11.05;;;;;;;;;;5054710;28;20056;-82
2023/04/07 05:00:31;;;;;;;31.60;10.45;;;;;;;;;;5035526;28;20064;-81
2023/04/07 05:02:58;;;;;;;32.72;10.20;;;;;;;;;;5053920;28;20387;-82
2023/04/07 05:05:24;;;;;;;30.98;10.85;;;;;;;;;;5037445;28;20044;-82
2023/04/07 05:07:50;;;;;;;33.28;10.68;;;;;;;;;;5055003;28;20389;-82
2023/04/07 05:10:16;;;;;;;32.70;11.30;;;;;;;;;;5055192;28;20041;-82
2023/04/07 05:12:42;;;;;;;32.78;10.27;;;;;;;;;;5054950;28;20045;-81
2023/04/07 05:15:08;;;;;;;35.05;10.88;;;;;;;;;;5055240;28;20063;-82
2023/04/07 05:17:34;;;;;;;33.97;11.13;;;;;;;;;;5053923;28;20041;-82
2023/04/07 05:20:00;;;;;;;32.03;10.73;;;;;;;;;;5054670;28;20102;-81
2023/04/07 05:22:26;;;;;;;34.40;10.95;;;;;;;;;;5055108;28;20041;-81
2023/04/07 05:24:52;;;;;;;35.25;11.10;;;;;;;;;;5054817;28;20040;-81
2023/04/07 05:27:19;;;;;;;35.08;10.63;;;;;;;;;;5053827;28;20052;-81
2023/04/07 05:29:45;;;;;;;25.30;10.60;;;;;;;;;;5054672;28;20048;-82
2023/04/07 05:32:11;;;;;;;30.58;11.07;;;;;;;;;;5053359;28;20124;-82
2023/04/07 05:34:37;;;;;;;32.05;11.20;;;;;;;;;;5053893;28;20055;-82
2023/04/07 05:37:03;;;;;;;28.20;10.80;;;;;;;;;;5036680;28;20045;-81
2023/04/07 05:39:29;;;;;;;27.58;10.80;;;;;;;;;;5054732;28;20520;-82
2023/04/07 05:41:56;;;;;;;30.77;11.15;;;;;;;;;;5052854;28;20068;-82
2023/04/07 05:44:22;;;;;;;30.83;11.65;;;;;;;;;;5053437;28;20103;-82
2023/04/07 05:46:48;;;;;;;29.70;11.43;;;;;;;;;;5052882;28;20049;-81
2023/04/07 05:49:14;;;;;;;32.60;10.80;;;;;;;;;;5053218;28;20056;-81
2023/04/07 05:51:40;;;;;;;33.47;11.10;;;;;;;;;;5054503;28;20084;-81
2023/04/07 05:54:06;;;;;;;27.52;10.07;;;;;;;;;;5053094;28;20413;-81
2023/04/07 05:56:32;;;;;;;32.20;11.93;;;;;;;;;;5053129;28;20045;-82
2023/04/07 05:59:00;;;;;;;32.80;11.15;;;;;;;;;;5054002;28;20060;-81
2023/04/07 06:01:26;;;;;;;33.90;11.30;;;;;;;;;;5044410;28;20102;-81
2023/04/07 06:03:53;;;;;;;28.83;11.02;;;;;;;;;;5048830;28;20049;-82
2023/04/07 06:06:19;;;;;;;33.55;11.02;;;;;;;;;;5054445;28;20047;-82
2023/04/07 06:08:46;;;;;;;38.88;12.13;;;;;;;;;;5054043;28;20514;-82
2023/04/07 06:11:12;;;;;;;33.00;11.98;;;;;;;;;;5036293;28;20067;-82
2023/04/07 06:13:38;;;;;;;33.15;12.18;;;;;;;;;;5054138;28;20045;-81
2023/04/07 06:16:05;;;;;;;31.52;12.57;;;;;;;;;;5052428;28;20167;-82
2023/04/07 06:18:31;;;;;;;36.10;12.63;;;;;;;;;;5054143;28;20045;-82
2023/04/07 06:20:57;;;;;;;36.25;11.75;;;;;;;;;;5053402;28;20056;-81
2023/04/07 06:23:23;;;;;;;35.80;12.10;;;;;;;;;;5054318;28;20134;-82
2023/04/07 06:25:51;;;;;;;35.13;12.20;;;;;;;;;;5052556;28;20043;-82
2023/04/07 06:28:18;;;;;;;34.13;12.65;;;;;;;;;;5086506;28;20048;-81
2023/04/07 06:30:44;;;;;;;32.63;12.50;;;;;;;;;;5053765;28;20041;-81
2023/04/07 06:33:10;;;;;;;30.55;12.38;;;;;;;;;;5052089;28;20052;-82
2023/04/07 06:35:36;;;;;;;39.83;12.30;;;;;;;;;;5069126;28;20076;-82
2023/04/07 06:38:02;;;;;;;39.17;13.00;;;;;;;;;;5053594;28;20478;-81
2023/04/07 06:40:28;;;;;;;24.55;12.57;;;;;;;;;;5052387;28;20406;-81
2023/04/07 06:42:55;;;;;;;24.80;13.77;;;;;;;;;;5053318;28;20049;-82
2023/04/07 06:45:21;;;;;;;21.40;11.73;;;;;;;;;;5053656;28;20037;-81
2023/04/07 06:47:47;;;;;;;19.77;11.27;;;;;;;;;;5086187;28;20509;-82
2023/04/07 06:50:13;;;;;;;21.17;11.60;;;;;;;;;;5052049;28;20088;-82
2023/04/07 06:52:39;;;;;;;18.67;10.95;;;;;;;;;;5052223;28;20044;-82
2023/04/07 06:55:06;;;;;;;21.08;12.38;;;;;;;;;;5035318;28;20048;-82
2023/04/07 06:57:32;;;;;;;23.20;12.98;;;;;;;;;;5052189;28;20037;-82
2023/04/07 06:59:58;;;;;;;22.85;12.70;;;;;;;;;;5034871;28;20052;-82
2023/04/07 07:02:25;;;;;;;21.85;12.27;;;;;;;;;;5042048;28;20527;-82
2023/04/07 07:04:51;;;;;;;21.50;13.13;;;;;;;;;;5052128;28;20486;-82
2023/04/07 07:07:17;;;;;;;23.10;13.00;;;;;;;;;;5085394;28;20497;-82
2023/04/07 07:09:43;;;;;;;21.63;12.52;;;;;;;;;;5052105;28;20045;-82
2023/04/07 07:12:09;;;;;;;23.40;13.43;;;;;;;;;;5050488;28;20119;-82
2023/04/07 07:14:35;;;;;;;22.42;13.07;;;;;;;;;;5051800;28;20037;-81
2023/04/07 07:17:01;;;;;;;22.67;11.85;;;;;;;;;;5052312;28;20048;-82
2023/04/07 07:19:27;;;;;;;26.05;15.05;;;;;;;;;;5051640;28;20043;-82
2023/04/07 07:21:54;;;;;;;24.13;14.05;;;;;;;;;;5051426;28;20044;-82
2023/04/07 07:24:20;;;;;;;24.15;14.23;;;;;;;;;;5034925;28;20073;-82
2023/04/07 07:26:46;;;;;;;25.55;14.63;;;;;;;;;;5052614;28;20126;-82
2023/04/07 07:29:12;;;;;;;26.42;15.55;;;;;;;;;;5051508;28;20095;-82
2023/04/07 07:31:38;;;;;;;21.73;14.02;;;;;;;;;;5051304;28;20049;-82
2023/04/07 07:34:04;;;;;;;23.45;14.60;;;;;;;;;;5051276;28;20485;-82
2023/04/07 07:36:31;;;;;;;23.27;14.38;;;;;;;;;;5052576;28;20044;-82
2023/04/07 07:38:57;;;;;;;22.67;12.20;;;;;;;;;;5051038;28;20041;-82
2023/04/07 07:41:23;;;;;;;21.23;13.20;;;;;;;;;;5051968;28;20061;-82
2023/04/07 07:43:49;;;;;;;21.95;14.00;;;;;;;;;;5051407;28;20057;-82
2023/04/07 07:46:15;;;;;;;21.08;13.20;;;;;;;;;;5051670;28;20138;-82
2023/04/07 07:48:41;;;;;;;21.63;13.63;;;;;;;;;;5051123;28;20045;-82
2023/04/07 07:51:07;;;;;;;23.48;15.30;;;;;;;;;;5034215;28;20049;-82
2023/04/07 07:53:33;;;;;;;23.23;15.05;;;;;;;;;;5052461;28;20037;-82
2023/04/07 07:56:00;;;;;;;24.90;15.05;;;;;;;;;;5050538;28;20045;-82
2023/04/07 07:58:26;;;;;;;23.52;14.07;;;;;;;;;;5052330;28;20048;-82
2023/04/07 08:00:52;;;;;;;23.88;15.45;;;;;;;;;;5047364;28;20041;-82
2023/04/07 08:03:21;;;;;;;22.13;14.55;;;;;;;;;;5051938;28;20394;-82
2023/04/07 08:05:48;;;;;;;21.58;14.57;;;;;;;;;;5052231;28;20044;-82
2023/04/07 08:08:14;;;;;;;24.67;15.70;;;;;;;;;;5051938;28;20041;-82
2023/04/07 08:10:40;;;;;;;21.55;14.48;;;;;;;;;;5051980;28;20033;-82
2023/04/07 08:13:06;;;;;;;20.80;14.02;;;;;;;;;;5051649;28;20497;-82
2023/04/07 08:15:32;;;;;;;19.17;13.57;;;;;;;;;;5050665;28;20037;-82
2023/04/07 08:17:59;;;;;;;18.77;12.35;;;;;;;;;;5050848;28;20052;-82
2023/04/07 08:20:26;;;;;;;20.88;13.32;;;;;;;;;;5051045;28;20099;-82
2023/04/07 08:22:52;;;;;;;20.98;13.50;;;;;;;;;;5052083;28;20123;-82
2023/04/07 08:25:19;;;;;;;19.48;13.60;;;;;;;;;;5054502;28;20053;-82
2023/04/07 08:27:45;;;;;;;17.80;11.93;;;;;;;;;;5056234;28;20393;-82
2023/04/07 08:30:12;;;;;;;18.33;12.75;;;;;;;;;;5056190;28;20041;-82
2023/04/07 08:32:42;;;;;;;18.25;12.32;;;;;;;;;;5054818;28;20128;-82
2023/04/07 08:35:09;;;;;;;18.75;13.02;;;;;;;;;;5054756;28;20076;-82
2023/04/07 08:37:35;;;;;;;19.13;13.02;;;;;;;;;;5056282;28;20575;-82
2023/04/07 08:40:02;;;;;;;19.55;12.73;;;;;;;;;;5056365;28;20128;-82
2023/04/07 08:42:29;;;;;;;19.38;11.60;;;;;;;;;;5054675;28;20052;-82
2023/04/07 08:44:57;;;;;;;18.98;12.27;;;;;;;;;;5055765;28;20045;-82
2023/04/07 08:47:26;;;;;;;19.92;12.98;;;;;;;;;;5039634;28;20055;-82
2023/04/07 08:49:52;;;;;;;17.45;11.63;;;;;;;;;;5056377;28;20075;-82
2023/04/07 08:52:22;;;;;;;17.13;11.63;;;;;;;;;;5055879;28;20048;-82
2023/04/07 08:54:48;;;;;;;17.48;12.20;;;;;;;;;;5056960;28;20397;-82
2023/04/07 08:57:16;;;;;;;16.10;11.25;;;;;;;;;;5057188;28;20465;-82
2023/04/07 08:59:44;;;;;;;19.60;11.52;;;;;;;;;;5058154;28;20447;-82
2023/04/07 09:02:10;;;;;;;15.32;9.60;;;;;;;;;;5055068;28;20044;-82
2023/04/07 09:04:36;;;;;;;16.45;11.40;;;;;;;;;;5057149;28;20049;-82
2023/04/07 09:07:02;;;;;;;16.65;11.55;;;;;;;;;;5054279;28;20037;-82
2023/04/07 09:09:29;;;;;;;15.98;11.02;;;;;;;;;;5053796;28;20068;-82
2023/04/07 09:11:55;;;;;;;17.02;11.00;;;;;;;;;;5068056;28;20051;-82
2023/04/07 09:14:21;;;;;;;17.05;10.40;;;;;;;;;;5054141;28;20497;-82
2023/04/07 09:16:47;;;;;;;17.38;10.18;;;;;;;;;;5055449;28;20119;-82
2023/04/07 09:19:14;;;;;;;14.77;7.85;;;;;;;;;;5053997;28;20477;-82
2023/04/07 09:21:47;;;;;;;15.18;7.88;;;;;;;;;;5070633;28;20045;-82
2023/04/07 09:24:21;;;;;;;11.48;7.38;;;;;;;;;;5037103;28;20033;-82
2023/04/07 09:26:47;;;;;;;11.50;7.13;;;;;;;;;;5053871;28;20041;-82
2023/04/07 09:29:17;;;;;;;13.07;9.25;;;;;;;;;;5053711;28;20532;-82
2023/04/07 09:31:51;;;;;;;12.60;7.97;;;;;;;;;;5053738;28;20052;-82
2023/04/07 09:34:28;;;;;;;10.63;6.65;;;;;;;;;;5053610;28;20055;-82
2023/04/07 09:36:54;;;;;;;11.70;7.97;;;;;;;;;;5053177;28;20552;-82
2023/04/07 09:39:20;;;;;;;10.90;7.68;;;;;;;;;;5053265;28;20041;-82
2023/04/07 09:41:46;;;;;;;11.63;8.45;;;;;;;;;;5054881;28;20060;-82
2023/04/07 09:44:13;;;;;;;12.80;9.30;;;;;;;;;;5069699;28;20048;-82
2023/04/07 09:46:52;;;;;;;13.75;8.18;;;;;;;;;;5053617;28;20045;-82
2023/04/07 09:49:21;;;;;;;13.88;8.80;;;;;;;;;;5036385;28;20055;-82
2023/04/07 09:51:55;;;;;;;12.55;8.32;;;;;;;;;;5053521;28;20044;-82
2023/04/07 09:54:40;;;;;;;14.85;9.52;;;;;;;;;;5053191;28;20045;-82
2023/04/07 09:57:08;;;;;;;14.95;9.23;;;;;;;;;;5053310;28;20096;-82
2023/04/07 09:59:35;;;;;;;12.55;9.45;;;;;;;;;;5052897;28;20064;-82
2023/04/07 10:02:01;;;;;;;14.80;10.40;;;;;;;;;;5048351;28;20052;-82
2023/04/07 10:04:28;;;;;;;19.75;11.60;;;;;;;;;;5054186;28;20044;-82
2023/04/07 10:06:54;;;;;;;14.60;9.82;;;;;;;;;;5054427;28;20044;-82
2023/04/07 10:09:22;;;;;;;17.35;10.98;;;;;;;;;;5052823;28;20128;-82
2023/04/07 10:11:49;;;;;;;16.60;11.15;;;;;;;;;;5054443;28;20041;-82
2023/04/07 10:14:16;;;;;;;18.23;11.55;;;;;;;;;;5053771;28;20037;-82
2023/04/07 10:16:43;;;;;;;17.60;11.50;;;;;;;;;;5054739;28;20045;-82
2023/04/07 10:19:09;;;;;;;15.80;10.48;;;;;;;;;;5054150;28;20049;-82
2023/04/07 10:21:37;;;;;;;15.77;11.10;;;;;;;;;;5052804;28;20049;-83
2023/04/07 10:24:26;;;;;;;15.80;10.75;;;;;;;;;;5086214;28;20045;-82
2023/04/07 10:26:57;;;;;;;15.15;11.07;;;;;;;;;;5052762;28;20080;-82
2023/04/07 10:29:24;;;;;;;15.18;10.85;;;;;;;;;;5052829;28;20036;-82
2023/04/07 10:31:51;;;;;;;17.20;11.52;;;;;;;;;;5053937;28;20084;-82
2023/04/07 10:34:17;;;;;;;15.52;11.40;;;;;;;;;;5052031;28;20087;-82
2023/04/07 10:37:20;;;;;;;16.30;10.50;;;;;;;;;;5054031;28;20448;-83
2023/04/07 10:39:46;;;;;;;14.50;10.05;;;;;;;;;;5021654;28;20051;-82
2023/04/07 10:42:31;;;;;;;16.17;10.95;;;;;;;;;;5052414;28;20138;-82
2023/04/07 10:44:59;;;;;;;14.57;10.75;;;;;;;;;;5053685;28;20045;-82
2023/04/07 10:47:26;;;;;;;14.15;10.32;;;;;;;;;;5034462;28;20130;-82
2023/04/07 10:50:10;;;;;;;12.05;9.27;;;;;;;;;;5053630;28;20049;-82
2023/04/07 10:52:37;;;;;;;12.00;9.13;;;;;;;;;;5051905;28;20063;-82
2023/04/07 10:55:22;;;;;;;15.05;10.40;;;;;;;;;;5053501;28;20044;-82
2023/04/07 10:58:06;;;;;;;13.85;9.45;;;;;;;;;;5053336;28;20068;-82
2023/04/07 11:00:32;;;;;;;14.38;9.68;;;;;;;;;;5049947;28;20045;-82
2023/04/07 11:03:09;;;;;;;12.50;9.38;;;;;;;;;;5049974;28;20127;-82
2023/04/07 11:05:37;;;;;;;16.13;10.07;;;;;;;;;;5053255;28;20095;-82
2023/04/07 11:08:05;;;;;;;13.80;10.77;;;;;;;;;;5053213;28;20052;-82
2023/04/07 11:10:31;;;;;;;14.40;10.15;;;;;;;;;;5051484;28;20051;-82
2023/04/07 11:13:17;;;;;;;14.30;9.35;;;;;;;;;;5052034;28;20045;-82
2023/04/07 11:15:43;;;;;;;13.10;8.73;;;;;;;;;;5051702;28;20138;-82
2023/04/07 11:18:11;;;;;;;15.15;10.95;;;;;;;;;;5052038;28;20407;-82
2023/04/07 11:20:46;;;;;;;14.60;9.95;;;;;;;;;;5052699;28;20041;-82
2023/04/07 11:23:12;;;;;;;14.13;9.88;;;;;;;;;;5052011;28;20524;-82
2023/04/07 11:25:39;;;;;;;15.00;10.52;;;;;;;;;;5050985;28;20133;-82
2023/04/07 11:28:05;;;;;;;13.10;9.45;;;;;;;;;;5051663;28;20433;-82
2023/04/07 11:30:31;;;;;;;14.65;10.55;;;;;;;;;;5052427;28;20072;-82
2023/04/07 11:32:58;;;;;;;15.10;10.38;;;;;;;;;;5051326;28;20052;-82
2023/04/07 11:35:25;;;;;;;12.48;9.70;;;;;;;;;;5052126;28;20083;-82
2023/04/07 11:37:56;;;;;;;12.35;9.48;;;;;;;;;;5051865;28;20358;-82
2023/04/07 11:40:33;;;;;;;13.23;9.90;;;;;;;;;;5052199;28;20041;-82
2023/04/07 11:43:00;;;;;;;12.10;9.57;;;;;;;;;;5051427;28;20049;-82
2023/04/07 11:45:26;;;;;;;12.15;9.40;;;;;;;;;;5050741;28;20059;-82
2023/04/07 11:47:53;;;;;;;12.70;10.10;;;;;;;;;;5052532;28;20482;-82
2023/04/07 11:50:39;;;;;;;12.98;9.57;;;;;;;;;;5052379;28;20041;-82
2023/04/07 11:53:05;;;;;;;12.45;9.48;;;;;;;;;;5051038;28;20064;-82
2023/04/07 11:55:31;;;;;;;13.30;10.27;;;;;;;;;;5051857;28;20112;-82
2023/04/07 11:58:05;;;;;;;13.07;9.77;;;;;;;;;;5052487;28;20041;-82
2023/04/07 12:00:31;;;;;;;15.73;10.20;;;;;;;;;;5032165;28;20040;-82
2023/04/07 12:02:57;;;;;;;10.85;8.70;;;;;;;;;;5043667;28;20511;-82
2023/04/07 12:05:23;;;;;;;11.25;7.55;;;;;;;;;;5052139;28;20044;-82
2023/04/07 12:07:54;;;;;;;11.70;7.60;;;;;;;;;;5050689;28;20118;-82
2023/04/07 12:10:27;;;;;;;10.90;8.73;;;;;;;;;;5034270;28;20477;-82
2023/04/07 12:12:53;;;;;;;11.02;8.55;;;;;;;;;;5050849;28;20079;-82
2023/04/07 12:15:19;;;;;;;10.93;7.95;;;;;;;;;;5050920;28;20045;-82
2023/04/07 12:17:46;;;;;;;10.38;8.10;;;;;;;;;;5051959;28;20039;-82
2023/04/07 12:20:13;;;;;;;11.75;8.13;;;;;;;;;;5052329;28;20037;-82
2023/04/07 12:22:39;;;;;;;9.68;6.97;;;;;;;;;;5051692;28;20421;-82
2023/04/07 12:25:06;;;;;;;10.00;7.50;;;;;;;;;;5050541;28;20045;-82
2023/04/07 12:27:32;;;;;;;10.40;7.40;;;;;;;;;;5050291;28;20044;-82
2023/04/07 12:29:58;;;;;;;9.90;7.65;;;;;;;;;;5052518;28;20095;-82
2023/04/07 12:32:24;;;;;;;9.35;6.60;;;;;;;;;;5050703;28;20048;-82
2023/04/07 12:34:51;;;;;;;11.02;8.15;;;;;;;;;;5051570;28;20120;-82
2023/04/07 12:37:17;;;;;;;9.98;7.85;;;;;;;;;;5034452;28;20049;-82
2023/04/07 12:39:43;;;;;;;9.32;7.35;;;;;;;;;;5051643;28;20037;-82
2023/04/07 12:42:10;;;;;;;6.45;5.13;;;;;;;;;;5030707;28;20054;-82
2023/04/07 12:44:37;;;;;;;6.20;4.22;;;;;;;;;;5036284;28;20057;-82
2023/04/07 12:47:03;;;;;;;5.43;3.95;;;;;;;;;;5051902;28;20112;-82
2023/04/07 12:49:29;;;;;;;5.63;4.35;;;;;;;;;;5050437;28;20040;-82
2023/04/07 12:51:56;;;;;;;8.80;5.38;;;;;;;;;;5051947;28;20093;-82
2023/04/07 12:54:22;;;;;;;8.10;4.85;;;;;;;;;;5050475;28;20068;-82
2023/04/07 12:56:49;;;;;;;7.57;5.00;;;;;;;;;;5050059;28;20036;-82
2023/04/07 12:59:15;;;;;;;7.53;4.40;;;;;;;;;;5051899;28;20041;-82
2023/04/07 13:01:41;;;;;;;6.43;4.40;;;;;;;;;;5045630;28;20049;-83
2023/04/07 13:04:08;;;;;;;6.47;4.88;;;;;;;;;;5050938;28;20041;-81
2023/04/07 13:06:34;;;;;;;6.85;4.25;;;;;;;;;;5050131;28;20082;-82
2023/04/07 13:09:00;;;;;;;6.47;4.80;;;;;;;;;;5050550;28;20124;-82
2023/04/07 13:11:26;;;;;;;6.70;4.93;;;;;;;;;;5052239;28;20049;-82
2023/04/07 13:13:53;;;;;;;6.28;4.35;;;;;;;;;;5053917;28;20041;-82
2023/04/07 13:16:19;;;;;;;11.60;8.70;;;;;;;;;;5054046;28;20036;-82
2023/04/07 13:18:45;;;;;;;13.88;10.18;;;;;;;;;;5055120;28;20103;-82
2023/04/07 13:21:11;;;;;;;12.95;10.20;;;;;;;;;;5037803;28;20040;-82
2023/04/07 13:23:37;;;;;;;12.70;10.05;;;;;;;;;;5054188;28;20474;-82
2023/04/07 13:26:03;;;;;;;12.27;8.40;;;;;;;;;;5054025;28;20037;-82
2023/04/07 13:28:29;;;;;;;13.00;8.90;;;;;;;;;;5055562;28;20041;-82
2023/04/07 13:30:55;;;;;;;13.43;10.25;;;;;;;;;;5053588;28;20041;-82
2023/04/07 13:33:21;;;;;;;10.40;7.55;;;;;;;;;;5038749;28;20043;-82
2023/04/07 13:35:47;;;;;;;11.52;8.40;;;;;;;;;;5055186;28;20044;-82
2023/04/07 13:38:13;;;;;;;11.15;8.00;;;;;;;;;;5054881;28;20116;-82
2023/04/07 13:40:40;;;;;;;9.73;7.05;;;;;;;;;;5037675;28;20052;-82
2023/04/07 13:43:06;;;;;;;12.00;8.30;;;;;;;;;;5056277;28;20116;-82
2023/04/07 13:45:32;;;;;;;10.50;7.35;;;;;;;;;;5056581;28;20040;-82
2023/04/07 13:47:59;;;;;;;9.60;5.70;;;;;;;;;;5054345;28;20387;-82
2023/04/07 13:50:25;;;;;;;11.38;7.13;;;;;;;;;;5054146;28;20432;-82
2023/04/07 13:52:51;;;;;;;11.20;7.18;;;;;;;;;;5053519;28;20071;-82
2023/04/07 13:55:19;;;;;;;12.10;8.18;;;;;;;;;;5036694;28;20092;-82
2023/04/07 13:57:45;;;;;;;10.63;7.55;;;;;;;;;;5052858;28;20093;-82
2023/04/07 14:00:13;;;;;;;9.52;6.90;;;;;;;;;;5053590;28;20409;-82
2023/04/07 14:02:39;;;;;;;11.77;8.00;;;;;;;;;;5051432;28;20041;-82
2023/04/07 14:05:05;;;;;;;11.57;7.70;;;;;;;;;;5054330;28;20549;-82
2023/04/07 14:07:31;;;;;;;12.65;8.23;;;;;;;;;;5053246;28;20048;-82
2023/04/07 14:09:57;;;;;;;11.80;7.60;;;;;;;;;;5053155;28;20082;-82
2023/04/07 14:12:23;;;;;;;10.07;7.88;;;;;;;;;;5054637;28;20052;-82
2023/04/07 14:14:51;;;;;;;10.38;7.38;;;;;;;;;;5053017;28;20493;-82
2023/04/07 14:17:17;;;;;;;10.95;7.22;;;;;;;;;;5053209;28;20079;-82
2023/04/07 14:19:43;;;;;;;10.77;7.57;;;;;;;;;;5054353;28;20075;-82
2023/04/07 14:22:09;;;;;;;10.18;7.32;;;;;;;;;;5052984;28;20045;-82